createdAt,value
2019-02-28T00:03:32.424Z,2.83
2019-02-28T00:07:38.518Z,3.07
2019-02-28T00:11:42.496Z,2.60
2019-02-28T00:15:46.630Z,3.10
2019-02-28T00:19:50.896Z,2.53
2019-02-28T00:23:57.284Z,3.07
2019-02-28T00:28:00.664Z,2.60
2019-02-28T00:32:04.813Z,3.03
2019-02-28T00:36:08.878Z,2.90
2019-02-28T00:40:13.122Z,2.97
2019-02-28T00:44:17.177Z,2.70
2019-02-28T00:48:21.727Z,3.60
2019-02-28T00:52:26.580Z,3.27
2019-02-28T00:56:30.686Z,3.07
2019-02-28T01:00:37.069Z,3.33
2019-02-28T01:04:40.897Z,3.73
2019-02-28T01:08:44.954Z,3.03
2019-02-28T01:12:53.100Z,3.30
2019-02-28T01:16:54.753Z,3.50
2019-02-28T01:20:58.962Z,4.00
2019-02-28T01:25:05.982Z,3.57
2019-02-28T01:29:11.287Z,3.47
2019-02-28T01:33:15.370Z,3.73
2019-02-28T01:37:20.925Z,3.87
2019-02-28T01:41:25.085Z,4.00
2019-02-28T01:45:29.106Z,3.93
2019-02-28T01:49:33.286Z,4.80
2019-02-28T01:53:37.384Z,4.57
2019-02-28T01:57:44.122Z,3.70
2019-02-28T02:01:47.309Z,4.40
2019-02-28T02:05:52.442Z,4.50
2019-02-28T02:09:56.811Z,4.40
2019-02-28T02:14:00.934Z,4.77
2019-02-28T02:18:06.323Z,4.17
2019-02-28T02:22:10.740Z,4.90
2019-02-28T02:26:14.962Z,5.23
2019-02-28T02:30:20.030Z,4.90
2019-02-28T02:34:27.919Z,4.97
2019-02-28T02:38:30.012Z,5.23
2019-02-28T02:42:34.020Z,4.87
2019-02-28T02:46:38.124Z,5.97
2019-02-28T02:50:42.255Z,5.47
2019-02-28T02:54:46.384Z,5.63
2019-02-28T02:58:50.398Z,6.23
2019-02-28T03:02:54.581Z,5.57
2019-02-28T03:06:58.573Z,5.67
2019-02-28T03:11:03.071Z,6.13
2019-02-28T03:15:07.808Z,6.23
2019-02-28T03:19:12.039Z,5.83
2019-02-28T03:23:16.139Z,6.13
2019-02-28T03:27:20.226Z,5.70
2019-02-28T03:31:24.175Z,6.30
2019-02-28T03:35:40.605Z,6.30
2019-02-28T03:39:33.925Z,6.50
2019-02-28T03:43:42.471Z,6.87
2019-02-28T03:47:44.783Z,6.73
2019-02-28T03:51:48.970Z,7.00
2019-02-28T03:55:53.084Z,6.87
2019-02-28T04:04:50.229Z,7.50
2019-02-28T04:08:52.799Z,6.50
2019-02-28T04:12:57.813Z,7.40
2019-02-28T04:17:01.987Z,7.63
2019-02-28T04:21:10.142Z,7.67
2019-02-28T04:25:14.372Z,7.53
2019-02-28T04:29:18.430Z,7.10
2019-02-28T04:33:22.349Z,8.57
2019-02-28T04:37:26.577Z,7.53
2019-02-28T04:41:32.989Z,7.57
2019-02-28T04:45:36.463Z,8.37
2019-02-28T04:49:40.493Z,8.33
2019-02-28T04:53:44.453Z,9.03
2019-02-28T04:57:51.582Z,8.90
2019-02-28T05:01:54.120Z,8.63
2019-02-28T05:05:58.050Z,8.80
2019-02-28T05:10:02.020Z,8.83
2019-02-28T05:14:06.407Z,8.53
2019-02-28T05:18:10.380Z,8.57
2019-02-28T05:22:14.556Z,8.70
2019-02-28T05:26:18.711Z,7.77
2019-02-28T05:30:22.819Z,8.53
2019-02-28T05:34:26.841Z,8.57
2019-02-28T05:38:30.995Z,8.50
2019-02-28T05:42:34.991Z,8.63
2019-02-28T05:46:39.031Z,8.63
2019-02-28T05:50:43.044Z,9.30
2019-02-28T05:54:47.338Z,9.20
2019-02-28T05:58:53.408Z,9.80
2019-02-28T06:02:58.208Z,8.50
2019-02-28T06:07:03.300Z,9.40
2019-02-28T06:11:10.706Z,9.43
2019-02-28T06:15:14.701Z,10.20
2019-02-28T06:19:20.277Z,10.53
2019-02-28T06:23:24.419Z,8.70
2019-02-28T06:27:28.542Z,9.20
2019-02-28T06:31:34.382Z,9.13
2019-02-28T06:35:38.171Z,8.80
2019-02-28T06:39:42.268Z,9.23
2019-02-28T06:43:46.330Z,8.27
2019-02-28T06:47:50.394Z,8.47
2019-02-28T06:51:54.463Z,9.07
2019-02-28T06:55:58.510Z,9.17
2019-02-28T07:00:02.657Z,8.67
2019-02-28T07:04:06.716Z,8.03
2019-02-28T07:08:10.878Z,8.07
2019-02-28T07:12:15.058Z,7.87
2019-02-28T07:16:20.153Z,7.80
2019-02-28T07:20:24.221Z,8.20
2019-02-28T07:24:28.351Z,8.47
2019-02-28T07:28:36.306Z,8.93
2019-02-28T07:32:38.175Z,9.50
2019-02-28T07:36:44.641Z,8.83
2019-02-28T07:40:49.433Z,8.83
2019-02-28T07:44:57.487Z,8.63
2019-02-28T07:49:00.887Z,9.63
2019-02-28T07:53:05.608Z,9.27
2019-02-28T07:57:11.116Z,9.40
2019-02-28T08:01:15.018Z,9.23
2019-02-28T08:05:19.200Z,8.53
2019-02-28T08:09:24.800Z,8.77
2019-02-28T08:13:28.872Z,8.77
2019-02-28T08:17:35.327Z,10.97
2019-02-28T08:21:43.942Z,10.17
2019-02-28T08:25:44.757Z,10.17
2019-02-28T08:29:48.936Z,11.23
2019-02-28T08:33:53.038Z,11.83
2019-02-28T08:37:57.430Z,11.10
2019-02-28T08:42:04.579Z,10.40
2019-02-28T08:46:10.821Z,11.33
2019-02-28T08:50:18.928Z,11.13
2019-02-28T08:54:26.255Z,12.33
2019-02-28T08:58:25.764Z,11.60
2019-02-28T09:02:30.377Z,11.17
2019-02-28T09:06:37.902Z,13.00
2019-02-28T09:10:43.609Z,12.70
2019-02-28T09:14:46.975Z,12.63
2019-02-28T09:18:51.020Z,11.93
2019-02-28T09:22:55.159Z,12.00
2019-02-28T09:27:01.360Z,12.33
2019-02-28T09:31:05.981Z,13.63
2019-02-28T09:35:14.379Z,13.17
2019-02-28T09:39:19.400Z,11.90
2019-02-28T09:43:23.961Z,12.60
2019-02-28T09:47:28.379Z,12.37
2019-02-28T09:51:32.848Z,12.23
2019-02-28T09:55:36.951Z,10.87
2019-02-28T09:59:40.995Z,9.77
2019-02-28T10:03:45.039Z,11.10
2019-02-28T10:07:49.114Z,10.67
2019-02-28T10:11:53.227Z,10.70
2019-02-28T10:15:57.494Z,10.07
2019-02-28T10:20:04.731Z,9.13
2019-02-28T10:24:08.824Z,9.00
2019-02-28T10:28:12.935Z,8.80
2019-02-28T10:32:17.169Z,9.83
2019-02-28T10:36:21.556Z,9.07
2019-02-28T10:40:26.668Z,10.03
2019-02-28T10:44:31.618Z,9.63
2019-02-28T10:48:41.819Z,10.43
2019-02-28T10:52:41.431Z,10.57
2019-02-28T10:56:45.542Z,9.47
2019-02-28T11:00:49.795Z,9.97
2019-02-28T11:04:55.145Z,9.67
2019-02-28T11:08:59.264Z,10.07
2019-02-28T11:13:03.490Z,9.80
2019-02-28T11:17:13.566Z,9.47
2019-02-28T11:21:14.521Z,9.67
2019-02-28T11:25:18.693Z,8.17
2019-02-28T11:29:22.853Z,9.98
2019-02-28T11:33:26.983Z,8.73
2019-02-28T11:37:31.255Z,9.93
2019-02-28T11:41:35.511Z,8.43
2019-02-28T11:45:40.266Z,8.95
2019-02-28T11:49:44.545Z,9.80
2019-02-28T11:53:48.644Z,8.93
2019-02-28T11:57:53.300Z,9.15
2019-02-28T12:01:58.503Z,10.08
2019-02-28T12:06:04.545Z,10.45
2019-02-28T12:10:08.763Z,9.73
2019-02-28T12:14:13.091Z,9.50
2019-02-28T12:18:17.286Z,10.65
2019-02-28T12:22:21.436Z,10.95
2019-02-28T12:26:25.611Z,10.18
2019-02-28T12:30:29.922Z,10.15
2019-02-28T12:34:34.176Z,10.63
2019-02-28T12:38:38.391Z,11.03
2019-02-28T12:42:42.466Z,12.10
2019-02-28T12:46:46.545Z,12.28
2019-02-28T12:50:50.611Z,11.45
2019-02-28T12:54:54.643Z,12.25
2019-02-28T12:58:58.858Z,12.45
2019-02-28T13:03:03.027Z,13.30
2019-02-28T13:07:07.158Z,13.20
2019-02-28T13:11:11.613Z,13.25
2019-02-28T13:15:16.239Z,12.20
2019-02-28T13:19:21.061Z,13.28
2019-02-28T13:23:26.265Z,13.95
2019-02-28T13:27:32.062Z,14.60
2019-02-28T13:31:36.368Z,15.18
2019-02-28T13:35:45.488Z,15.70
2019-02-28T13:39:46.518Z,14.65
2019-02-28T13:43:50.770Z,15.88
2019-02-28T13:47:54.989Z,15.72
2019-02-28T13:51:59.272Z,17.23
2019-02-28T13:56:05.029Z,16.37
2019-02-28T14:00:14.256Z,15.98
2019-02-28T14:04:18.736Z,14.90
2019-02-28T14:08:24.147Z,12.47
2019-02-28T14:12:28.887Z,12.78
2019-02-28T14:16:33.100Z,11.48
2019-02-28T14:20:37.389Z,11.20
2019-02-28T14:24:41.354Z,10.20
2019-02-28T14:28:45.439Z,8.20
2019-02-28T14:32:49.575Z,7.07
2019-02-28T14:36:53.641Z,6.30
2019-02-28T14:40:59.359Z,4.87
2019-02-28T14:45:07.186Z,4.20
2019-02-28T14:49:12.475Z,4.10
2019-02-28T14:53:15.763Z,3.10
2019-02-28T14:57:19.807Z,3.27
2019-02-28T15:01:23.832Z,2.90
2019-02-28T15:05:28.261Z,2.43
2019-02-28T15:09:32.548Z,2.57
2019-02-28T15:13:36.679Z,2.53
2019-02-28T15:17:41.994Z,1.90
2019-02-28T15:21:46.216Z,1.93
2019-02-28T15:25:50.755Z,2.00
2019-02-28T15:29:58.901Z,2.30
2019-02-28T15:34:05.134Z,2.03
2019-02-28T15:38:09.116Z,1.90
2019-02-28T15:42:13.533Z,1.90
2019-02-28T15:46:17.966Z,1.50
2019-02-28T15:50:22.144Z,1.93
2019-02-28T15:54:26.254Z,1.73
2019-02-28T15:58:30.488Z,1.57
2019-02-28T16:02:34.615Z,2.10
2019-02-28T16:06:38.615Z,1.67
2019-02-28T16:10:52.969Z,2.00
2019-02-28T16:14:48.941Z,1.70
2019-02-28T16:18:53.149Z,1.80
2019-02-28T16:22:57.103Z,1.70
2019-02-28T16:27:01.645Z,29.20
2019-02-28T16:31:06.424Z,12.37
2019-02-28T16:35:14.760Z,4.90
2019-02-28T16:39:18.290Z,3.00
2019-02-28T16:43:22.564Z,2.60
2019-02-28T16:47:27.965Z,6.50
2019-02-28T16:51:33.413Z,4.90
2019-02-28T16:55:37.432Z,3.90
2019-02-28T16:59:41.601Z,3.30
2019-02-28T17:03:46.078Z,2.70
2019-02-28T17:07:50.112Z,2.53
2019-02-28T17:12:07.165Z,2.80
2019-02-28T17:16:33.683Z,2.87
2019-02-28T17:20:37.691Z,3.30
2019-02-28T17:24:45.763Z,2.57
2019-02-28T17:28:53.107Z,3.40
2019-02-28T17:33:05.863Z,3.00
2019-02-28T17:37:09.036Z,3.17
2019-02-28T17:41:13.332Z,3.17
2019-02-28T17:45:20.209Z,3.50
2019-02-28T17:49:43.534Z,3.40
2019-02-28T17:53:57.550Z,3.47
2019-02-28T17:58:07.490Z,3.17
2019-02-28T18:02:18.311Z,3.33
2019-02-28T18:06:43.749Z,3.93
2019-02-28T18:11:06.816Z,5.03
2019-02-28T18:15:16.949Z,3.70
2019-02-28T18:19:40.329Z,3.70
2019-02-28T18:24:05.087Z,3.57
2019-02-28T18:28:12.911Z,4.00
2019-02-28T18:32:17.070Z,3.60
2019-02-28T18:36:22.359Z,3.53
2019-02-28T18:40:26.863Z,4.50
2019-02-28T18:44:30.968Z,3.97
2019-02-28T18:48:35.177Z,4.77
2019-02-28T18:52:40.800Z,4.63
2019-02-28T18:56:47.287Z,4.40
2019-02-28T19:00:51.419Z,4.03
2019-02-28T19:04:56.772Z,3.47
2019-02-28T19:09:00.921Z,4.17
2019-02-28T19:13:06.543Z,4.03
2019-02-28T19:17:10.682Z,4.07
2019-02-28T19:21:15.251Z,3.70
2019-02-28T19:25:19.457Z,4.47
2019-02-28T19:29:25.415Z,4.27
2019-02-28T19:33:39.753Z,4.47
2019-02-28T19:37:43.797Z,4.20
2019-02-28T19:41:48.324Z,4.37
2019-02-28T19:45:52.939Z,4.23
2019-02-28T19:49:56.981Z,4.53
2019-02-28T19:54:01.058Z,4.57
2019-02-28T19:58:05.226Z,4.30
2019-02-28T20:02:09.266Z,4.10
2019-02-28T20:06:13.336Z,4.47
2019-02-28T20:10:18.847Z,4.50
2019-02-28T20:14:23.221Z,5.03
2019-02-28T20:18:27.293Z,4.63
2019-02-28T20:22:31.516Z,4.53
2019-02-28T20:26:35.477Z,5.00
2019-02-28T20:30:39.660Z,4.10
2019-02-28T20:34:43.874Z,4.77
2019-02-28T20:38:47.979Z,4.50
2019-02-28T20:42:52.025Z,4.67
2019-02-28T20:46:58.032Z,5.47
2019-02-28T20:51:02.256Z,4.53
2019-02-28T20:55:06.528Z,4.27
2019-02-28T20:59:10.673Z,4.83
2019-02-28T21:03:14.711Z,4.43
2019-02-28T21:07:19.125Z,4.03
2019-02-28T21:11:23.285Z,3.67
2019-02-28T21:15:27.452Z,3.57
2019-02-28T21:19:31.770Z,3.57
2019-02-28T21:23:36.970Z,3.47
2019-02-28T21:27:41.099Z,3.27
2019-02-28T21:31:45.375Z,2.80
2019-02-28T21:35:49.395Z,2.97
2019-02-28T21:39:54.527Z,2.07
2019-02-28T21:43:58.783Z,1.83
2019-02-28T21:48:04.049Z,1.50
2019-02-28T21:52:08.247Z,1.20
2019-02-28T21:56:12.478Z,0.97
2019-02-28T22:00:17.800Z,0.90
2019-02-28T22:04:22.076Z,0.73
2019-02-28T22:08:26.234Z,1.00
2019-02-28T22:12:30.405Z,1.17
2019-02-28T22:16:34.398Z,1.20
2019-02-28T22:20:39.478Z,1.30
2019-02-28T22:24:43.573Z,1.33
2019-02-28T22:28:47.629Z,1.50
2019-02-28T22:32:54.332Z,1.47
2019-02-28T22:36:58.635Z,1.30
2019-02-28T22:41:02.749Z,1.40
2019-02-28T22:45:07.299Z,1.43
2019-02-28T22:49:11.347Z,1.43
2019-02-28T22:53:15.508Z,1.33
2019-02-28T22:57:19.678Z,1.37
2019-02-28T23:01:24.881Z,1.10
2019-02-28T23:05:29.021Z,1.03
2019-02-28T23:09:42.374Z,1.00
2019-02-28T23:13:46.670Z,0.90
2019-02-28T23:17:50.656Z,1.07
2019-02-28T23:21:55.741Z,0.80
2019-02-28T23:26:06.363Z,1.00
2019-02-28T23:30:22.768Z,1.13
2019-02-28T23:34:29.201Z,1.20
2019-02-28T23:38:33.312Z,1.10
2019-02-28T23:42:38.477Z,1.10
2019-02-28T23:46:42.521Z,1.10
2019-02-28T23:50:46.505Z,1.20
2019-02-28T23:54:50.635Z,1.40
2019-02-28T23:58:54.653Z,0.90
